HEAX/ALY METAR and TAF weather

Enter ICAO airport designator
Station Type Date Time Source
HEAX METAR 2019/02/23 02:00 UTC NOAA

HEAX 230200Z 19002KT CAVOK 10/09 Q1017 NOSIG


Station Type Date Time Source
HEAX Decoded METAR 2019/02/23 02:00 UTC NOAA

Alexandria / Nouzha, Egypt (HEAX) 31-12N 029-57E 7M
Feb 22, 2019 - 09:00 PM EST / 2019.02.23 0200 UTC
Wind: from the S (190 degrees) at 2 MPH (2 KT):0
Visibility: greater than 7 mile(s):0
Temperature: 50 F (10 C)
Dew Point: 48 F (9 C)
Relative Humidity: 93%
Pressure (altimeter): 30.03 in. Hg (1017 hPa)
ob: HEAX 230200Z 19002KT CAVOK 10/09 Q1017 NOSIG
cycle: 2

Station Type Date Time Source
HEAX TAF 2019/02/22 18:30 UTC NOAA

TAF HEAX 221700Z 2218/2324 31010KT 9999 SCT020
BECMG 2221/2223 21006KT
TEMPO 2303/2306 VRB03KT 3000 BR NSC


Example: see airport list